createdAt,value
2018-11-20T00:02:46.204Z,17.20
2018-11-20T00:05:46.459Z,17.10
2018-11-20T00:08:43.312Z,17.20
2018-11-20T00:11:19.635Z,17.20
2018-11-20T00:14:10.336Z,17.20
2018-11-20T00:17:04.053Z,17.20
2018-11-20T00:20:07.351Z,17.20
2018-11-20T00:22:49.814Z,17.20
2018-11-20T00:25:36.625Z,17.20
2018-11-20T00:28:30.599Z,17.20
2018-11-20T00:31:16.979Z,17.10
2018-11-20T00:34:03.234Z,17.10
2018-11-20T00:36:49.942Z,17.20
2018-11-20T00:39:37.058Z,17.20
2018-11-20T00:42:25.048Z,17.20
2018-11-20T00:45:11.808Z,17.20
2018-11-20T00:48:05.847Z,17.20
2018-11-20T00:50:52.453Z,17.20
2018-11-20T00:53:39.058Z,17.30
2018-11-20T00:57:13.939Z,17.30
2018-11-20T01:00:10.964Z,17.30
2018-11-20T01:03:07.791Z,17.40
2018-11-20T01:05:54.705Z,17.50
2018-11-20T01:08:37.325Z,17.50
2018-11-20T01:11:24.234Z,17.50
2018-11-20T01:14:11.039Z,17.50
2018-11-20T01:17:01.364Z,17.50
2018-11-20T01:19:55.569Z,17.40
2018-11-20T01:22:55.631Z,17.40
2018-11-20T01:25:55.749Z,17.40
2018-11-20T01:28:52.837Z,17.50
2018-11-20T01:31:46.922Z,17.50
2018-11-20T01:34:40.866Z,17.50
2018-11-20T01:37:40.826Z,17.60
2018-11-20T01:40:31.792Z,17.60
2018-11-20T01:43:22.493Z,17.70
2018-11-20T01:46:13.045Z,17.60
2018-11-20T01:49:07.134Z,17.60
2018-11-20T01:51:46.953Z,17.50
2018-11-20T01:54:29.521Z,17.50
2018-11-20T01:57:17.097Z,17.50
2018-11-20T02:00:05.163Z,17.40
2018-11-20T02:02:55.740Z,17.40
2018-11-20T02:05:31.345Z,17.50
2018-11-20T02:08:19.377Z,17.40
2018-11-20T02:11:22.467Z,17.40
2018-11-20T02:14:21.838Z,17.40
2018-11-20T02:17:11.040Z,17.30
2018-11-20T02:19:57.799Z,17.30
2018-11-20T02:22:51.724Z,17.40
2018-11-20T02:25:33.208Z,17.30
2018-11-20T02:28:20.227Z,17.30
2018-11-20T02:31:14.413Z,17.30
2018-11-20T02:34:05.223Z,17.20
2018-11-20T02:37:05.376Z,17.20
2018-11-20T02:39:51.940Z,17.20
2018-11-20T02:42:31.889Z,17.20
2018-11-20T02:45:21.154Z,17.20
2018-11-20T02:48:12.062Z,17.20
2018-11-20T02:50:58.917Z,17.20
2018-11-20T02:54:02.265Z,17.20
2018-11-20T02:56:48.731Z,17.30
2018-11-20T02:59:35.484Z,17.20
2018-11-20T03:02:22.396Z,17.20
2018-11-20T03:05:10.591Z,17.20
2018-11-20T03:08:04.528Z,17.20
2018-11-20T03:10:51.633Z,17.20
2018-11-20T03:13:39.671Z,17.10
2018-11-20T03:16:33.644Z,17.10
2018-11-20T03:19:13.883Z,17.10
2018-11-20T03:22:26.292Z,17.10
2018-11-20T03:25:30.858Z,17.00
2018-11-20T03:28:21.494Z,17.00
2018-11-20T03:31:20.639Z,17.10
2018-11-20T03:34:09.918Z,17.10
2018-11-20T03:36:57.827Z,17.10
2018-11-20T03:39:48.949Z,17.10
2018-11-20T03:42:32.821Z,17.10
2018-11-20T03:45:14.482Z,17.10
2018-11-20T03:48:01.195Z,17.10
2018-11-20T03:50:55.294Z,17.20
2018-11-20T03:53:58.568Z,17.20
2018-11-20T03:56:45.173Z,17.20
2018-11-20T03:59:45.293Z,17.10
2018-11-20T04:02:31.301Z,17.20
2018-11-20T04:05:17.887Z,17.10
2018-11-20T04:08:04.802Z,17.10
2018-11-20T04:10:42.134Z,17.20
2018-11-20T04:13:32.695Z,17.20
2018-11-20T04:16:19.393Z,17.30
2018-11-20T04:19:10.403Z,17.20
2018-11-20T04:22:01.260Z,17.20
2018-11-20T04:24:48.121Z,17.30
2018-11-20T04:27:48.038Z,17.20
2018-11-20T04:31:08.243Z,17.20
2018-11-20T04:34:12.564Z,17.20
2018-11-20T04:36:58.858Z,17.20
2018-11-20T04:39:41.404Z,17.20
2018-11-20T04:42:21.837Z,17.20
2018-11-20T04:45:02.179Z,17.30
2018-11-20T04:48:02.405Z,17.20
2018-11-20T04:50:50.787Z,17.30
2018-11-20T04:53:53.771Z,17.30
2018-11-20T04:56:40.342Z,17.30
2018-11-20T04:59:34.116Z,17.30
2018-11-20T05:02:40.268Z,17.30
2018-11-20T05:05:23.871Z,17.30
2018-11-20T05:08:11.955Z,17.20
2018-11-20T05:10:55.595Z,17.30
2018-11-20T05:13:42.090Z,17.30
2018-11-20T05:16:36.276Z,17.30
2018-11-20T05:19:39.469Z,17.30
2018-11-20T05:22:36.862Z,17.20
2018-11-20T05:25:33.539Z,17.20
2018-11-20T05:28:21.659Z,17.30
2018-11-20T05:31:09.872Z,17.40
2018-11-20T05:34:00.836Z,17.40
2018-11-20T05:36:57.827Z,17.40
2018-11-20T05:39:51.886Z,17.50
2018-11-20T05:42:55.080Z,17.60
2018-11-20T05:45:41.655Z,17.80
2018-11-20T05:48:38.714Z,18.10
2018-11-20T05:51:25.444Z,18.40
2018-11-20T05:54:18.124Z,18.50
2018-11-20T05:57:20.878Z,18.50
2018-11-20T06:00:17.608Z,18.10
2018-11-20T06:03:04.327Z,17.90
2018-11-20T06:05:51.084Z,17.70
2018-11-20T06:08:57.419Z,17.70
2018-11-20T06:11:48.207Z,17.70
2018-11-20T06:14:46.841Z,17.80
2018-11-20T06:17:34.817Z,17.40
2018-11-20T06:20:27.175Z,17.00
2018-11-20T06:23:06.500Z,16.90
2018-11-20T06:25:57.113Z,16.80
2018-11-20T06:28:32.843Z,16.70
2018-11-20T06:31:32.948Z,16.80
2018-11-20T06:34:19.646Z,16.90
2018-11-20T06:37:13.559Z,16.70
2018-11-20T06:40:01.598Z,16.90
2018-11-20T06:42:49.613Z,16.70
2018-11-20T06:45:46.590Z,16.90
2018-11-20T06:48:41.805Z,16.90
2018-11-20T06:51:47.798Z,16.80
2018-11-20T06:54:48.015Z,16.80
2018-11-20T06:57:34.765Z,16.90
2018-11-20T07:00:34.832Z,16.90
2018-11-20T07:03:22.879Z,17.00
2018-11-20T07:06:16.829Z,16.90
2018-11-20T07:09:07.726Z,17.00
2018-11-20T07:12:04.676Z,17.10
2018-11-20T07:14:54.250Z,17.30
2018-11-20T07:17:56.287Z,17.60
2018-11-20T07:20:44.559Z,17.70
2018-11-20T07:23:38.389Z,17.90
2018-11-20T07:26:41.744Z,17.90
2018-11-20T07:29:32.796Z,17.80
2018-11-20T07:32:19.141Z,17.70
2018-11-20T07:35:02.030Z,17.80
2018-11-20T07:37:48.461Z,17.70
2018-11-20T07:40:39.346Z,17.50
2018-11-20T07:43:29.292Z,17.30
2018-11-20T07:46:17.303Z,17.40
2018-11-20T07:49:03.745Z,17.70
2018-11-20T07:52:00.848Z,17.90
2018-11-20T07:54:54.549Z,18.00
2018-11-20T07:57:46.768Z,17.90
2018-11-20T08:00:33.457Z,18.00
2018-11-20T08:03:21.505Z,18.00
2018-11-20T08:06:12.501Z,18.20
2018-11-20T08:08:53.477Z,18.50
2018-11-20T08:11:40.286Z,18.50
2018-11-20T08:14:27.156Z,18.50
2018-11-20T08:17:30.338Z,17.80
2018-11-20T08:20:27.647Z,17.80
2018-11-20T08:23:09.989Z,18.00
2018-11-20T08:25:57.052Z,18.20
2018-11-20T08:28:56.882Z,18.40
2018-11-20T08:31:45.024Z,18.00
2018-11-20T08:34:35.826Z,17.90
2018-11-20T08:37:22.331Z,17.70
2018-11-20T08:40:22.388Z,18.10
2018-11-20T08:43:28.651Z,18.20
2018-11-20T08:46:22.634Z,18.10
2018-11-20T08:49:13.912Z,18.30
2018-11-20T08:52:00.519Z,18.20
2018-11-20T08:54:47.261Z,18.30
2018-11-20T08:57:33.042Z,18.50
2018-11-20T09:00:27.192Z,18.70
2018-11-20T09:03:13.844Z,18.80
2018-11-20T09:06:01.798Z,19.20
2018-11-20T09:08:48.027Z,19.70
2018-11-20T09:11:53.966Z,19.30
2018-11-20T09:14:40.391Z,19.80
2018-11-20T09:17:31.235Z,20.10
2018-11-20T09:20:18.296Z,20.60
2018-11-20T09:22:55.392Z,20.10
2018-11-20T09:26:01.870Z,20.30
2018-11-20T09:29:01.893Z,20.50
2018-11-20T09:31:52.794Z,20.90
2018-11-20T09:34:43.514Z,20.80
2018-11-20T09:37:49.554Z,21.60
2018-11-20T09:41:20.599Z,22.60
2018-11-20T09:44:54.513Z,22.60
2018-11-20T09:47:39.171Z,22.60
2018-11-20T09:50:38.207Z,22.40
2018-11-20T09:53:34.937Z,22.90
2018-11-20T09:56:22.953Z,23.00
2018-11-20T09:59:21.027Z,23.50
2018-11-20T10:02:21.056Z,24.30
2018-11-20T10:05:07.752Z,23.90
2018-11-20T10:07:58.732Z,23.80
2018-11-20T10:10:52.941Z,22.70
2018-11-20T10:13:56.353Z,22.40
2018-11-20T10:16:59.331Z,22.30
2018-11-20T10:19:50.645Z,22.30
2018-11-20T10:22:37.148Z,22.10
2018-11-20T10:25:37.393Z,21.80
2018-11-20T10:28:23.601Z,21.90
2018-11-20T10:31:11.496Z,21.80
2018-11-20T10:34:02.460Z,21.60
2018-11-20T10:36:49.020Z,21.70
2018-11-20T10:39:35.599Z,21.40
2018-11-20T10:42:24.952Z,21.50
2018-11-20T10:45:12.930Z,21.60
2018-11-20T10:47:59.845Z,21.60
2018-11-20T10:50:46.508Z,21.70
2018-11-20T10:53:33.143Z,21.70
2018-11-20T10:56:24.367Z,21.70
2018-11-20T10:59:27.570Z,21.70
2018-11-20T11:02:14.267Z,21.60
2018-11-20T11:05:01.067Z,22.10
2018-11-20T11:07:47.219Z,22.10
2018-11-20T11:10:34.294Z,21.90
2018-11-20T11:13:28.372Z,22.00
2018-11-20T11:16:28.574Z,22.10
2018-11-20T11:19:15.365Z,22.10
2018-11-20T11:22:09.354Z,22.10
2018-11-20T11:24:57.407Z,22.40
2018-11-20T11:27:54.470Z,22.40
2018-11-20T11:30:41.382Z,22.20
2018-11-20T11:33:44.646Z,22.20
2018-11-20T11:36:30.980Z,22.00
2018-11-20T11:39:21.496Z,22.00
2018-11-20T11:42:09.722Z,22.10
2018-11-20T11:45:15.727Z,22.30
2018-11-20T11:47:57.059Z,22.60
2018-11-20T11:50:43.665Z,22.80
2018-11-20T11:53:51.472Z,22.50
2018-11-20T11:56:46.095Z,22.90
2018-11-20T11:59:34.200Z,22.80
2018-11-20T12:05:08.368Z,22.50
2018-11-20T12:07:56.521Z,22.50
2018-11-20T12:10:36.409Z,22.20
2018-11-20T12:13:22.619Z,22.40
2018-11-20T12:16:22.872Z,22.50
2018-11-20T12:19:16.719Z,22.60
2018-11-20T12:22:04.456Z,22.40
2018-11-20T12:24:51.258Z,22.40
2018-11-20T12:27:38.201Z,22.60
2018-11-20T12:30:24.631Z,22.00
2018-11-20T12:33:18.452Z,21.90
2018-11-20T12:36:24.611Z,21.90
2018-11-20T12:39:24.527Z,22.30
2018-11-20T12:42:04.863Z,22.30
2018-11-20T12:44:51.286Z,22.10
2018-11-20T12:47:40.501Z,21.90
2018-11-20T12:50:28.085Z,22.00
2018-11-20T12:53:21.483Z,22.10
2018-11-20T12:56:14.280Z,22.30
2018-11-20T12:58:54.139Z,22.20
2018-11-20T13:01:35.084Z,22.30
2018-11-20T13:04:39.873Z,22.60
2018-11-20T13:07:40.783Z,22.80
2018-11-20T13:10:21.938Z,22.90
2018-11-20T13:13:18.870Z,23.10
2018-11-20T13:15:57.943Z,23.20
2018-11-20T13:18:44.958Z,23.00
2018-11-20T13:21:35.862Z,23.20
2018-11-20T13:24:15.305Z,23.40
2018-11-20T13:27:01.740Z,23.40
2018-11-20T13:29:48.613Z,23.00
2018-11-20T13:32:42.695Z,22.80
2018-11-20T13:35:30.701Z,22.50
2018-11-20T13:38:17.851Z,22.30
2018-11-20T13:41:34.765Z,22.30
2018-11-20T13:44:11.890Z,22.20
2018-11-20T13:47:01.219Z,21.90
2018-11-20T13:50:04.366Z,21.80
2018-11-20T13:52:42.895Z,21.80
2018-11-20T13:55:39.933Z,21.80
2018-11-20T13:58:26.480Z,22.00
2018-11-20T14:01:23.631Z,22.00
2018-11-20T14:04:10.182Z,22.40
2018-11-20T14:06:57.159Z,22.80
2018-11-20T14:09:54.666Z,22.70
2018-11-20T14:12:41.421Z,22.40
2018-11-20T14:15:47.894Z,22.30
2018-11-20T14:18:34.415Z,22.50
2018-11-20T14:21:17.628Z,22.50
2018-11-20T14:24:11.622Z,22.60
2018-11-20T14:27:17.760Z,22.70
2018-11-20T14:30:11.543Z,22.90
2018-11-20T14:33:02.446Z,23.10
2018-11-20T14:35:53.242Z,23.10
2018-11-20T14:38:39.645Z,22.80
2018-11-20T14:41:26.350Z,22.50
2018-11-20T14:44:13.161Z,22.40
2018-11-20T14:47:01.079Z,22.20
2018-11-20T14:49:49.285Z,22.20
2018-11-20T14:52:36.209Z,22.30
2018-11-20T14:55:42.642Z,22.30
2018-11-20T14:58:25.889Z,22.40
2018-11-20T15:01:17.270Z,22.20
2018-11-20T15:04:05.309Z,22.20
2018-11-20T15:06:51.859Z,22.20
2018-11-20T15:09:35.876Z,22.10
2018-11-20T15:12:29.840Z,21.90
2018-11-20T15:15:16.640Z,21.60
2018-11-20T15:18:04.678Z,21.70
2018-11-20T15:20:51.388Z,21.40
2018-11-20T15:23:45.471Z,21.40
2018-11-20T15:26:32.383Z,21.30
2018-11-20T15:29:19.050Z,21.30
2018-11-20T15:32:20.641Z,21.10
2018-11-20T15:35:07.575Z,21.00
2018-11-20T15:38:04.263Z,21.00
2018-11-20T15:41:07.446Z,20.90
2018-11-20T15:44:07.638Z,20.60
2018-11-20T15:46:55.655Z,20.60
2018-11-20T15:49:52.570Z,20.60
2018-11-20T15:52:40.600Z,20.60
2018-11-20T15:55:27.145Z,20.60
2018-11-20T15:58:21.224Z,20.50
2018-11-20T16:01:23.228Z,20.40
2018-11-20T16:04:08.156Z,20.40
2018-11-20T16:06:48.010Z,20.30
2018-11-20T16:09:31.239Z,20.20
2018-11-20T16:12:17.734Z,20.20
2018-11-20T16:15:04.140Z,20.20
2018-11-20T16:17:50.740Z,20.30
2018-11-20T16:20:38.878Z,20.40
2018-11-20T16:23:25.686Z,20.60
2018-11-20T16:26:19.729Z,20.50
2018-11-20T16:29:12.653Z,20.70
2018-11-20T16:31:56.100Z,20.70
2018-11-20T16:35:02.109Z,20.80
2018-11-20T16:37:56.098Z,20.70
2018-11-20T16:40:56.215Z,20.70
2018-11-20T16:43:46.501Z,20.70
2018-11-20T16:46:34.413Z,20.80
2018-11-20T16:49:40.396Z,20.70
2018-11-20T16:52:26.906Z,20.70
2018-11-20T16:55:29.994Z,20.70
2018-11-20T16:58:27.081Z,20.70
2018-11-20T17:01:13.953Z,20.50
2018-11-20T17:04:05.061Z,20.40
2018-11-20T17:06:43.890Z,20.40
2018-11-20T17:09:30.735Z,20.40
2018-11-20T17:12:15.869Z,20.30
2018-11-20T17:15:16.126Z,20.20
2018-11-20T17:18:04.339Z,20.10
2018-11-20T17:21:01.185Z,20.00
2018-11-20T17:23:48.504Z,20.00
2018-11-20T17:26:35.145Z,20.20
2018-11-20T17:29:38.846Z,20.10
2018-11-20T17:32:29.722Z,20.10
2018-11-20T17:35:16.326Z,20.10
2018-11-20T17:38:07.231Z,20.10
2018-11-20T17:41:31.132Z,20.20
2018-11-20T17:44:17.577Z,20.10
2018-11-20T17:47:03.714Z,20.20
2018-11-20T17:49:53.486Z,20.10
2018-11-20T17:52:56.889Z,20.00
2018-11-20T17:55:43.141Z,19.90
2018-11-20T17:58:24.365Z,19.80
2018-11-20T18:01:20.595Z,19.80
2018-11-20T18:04:06.594Z,19.80
2018-11-20T18:07:11.727Z,19.50
2018-11-20T18:09:53.722Z,19.50
2018-11-20T18:12:41.046Z,19.50
2018-11-20T18:15:27.681Z,19.30
2018-11-20T18:18:13.698Z,19.30
2018-11-20T18:20:51.753Z,19.20
2018-11-20T18:23:41.811Z,19.30
2018-11-20T18:26:27.619Z,19.30
2018-11-20T18:29:17.303Z,19.20
2018-11-20T18:32:19.545Z,18.80
2018-11-20T18:35:09.657Z,18.90
2018-11-20T18:37:55.549Z,19.00
2018-11-20T18:40:42.693Z,19.00
2018-11-20T18:43:30.423Z,18.90
2018-11-20T18:46:20.785Z,18.80
2018-11-20T18:49:08.929Z,18.60
2018-11-20T18:51:54.100Z,18.70
2018-11-20T18:54:56.516Z,18.70
2018-11-20T18:57:42.769Z,18.70
2018-11-20T19:00:26.906Z,18.80
2018-11-20T19:03:12.602Z,18.80
2018-11-20T19:06:11.785Z,18.80
2018-11-20T19:08:59.124Z,18.80
2018-11-20T19:11:44.854Z,18.90
2018-11-20T19:14:45.404Z,18.70
2018-11-20T19:17:47.104Z,18.80
2018-11-20T19:20:32.990Z,18.80
2018-11-20T19:23:35.118Z,18.60
2018-11-20T19:26:20.802Z,18.20
2018-11-20T19:28:55.369Z,17.90
2018-11-20T19:31:48.526Z,18.00
2018-11-20T19:34:31.606Z,17.80
2018-11-20T19:37:27.643Z,17.90
2018-11-20T19:40:33.430Z,17.90
2018-11-20T19:43:19.002Z,17.40
2018-11-20T19:46:21.318Z,17.50
2018-11-20T19:49:11.675Z,17.30
2018-11-20T19:52:07.824Z,17.10
2018-11-20T19:54:57.828Z,17.00
2018-11-20T19:57:44.067Z,17.00
2018-11-20T20:00:24.335Z,17.00
2018-11-20T20:03:10.441Z,17.00
2018-11-20T20:06:03.331Z,16.80
2018-11-20T20:08:56.652Z,16.70
2018-11-20T20:11:51.181Z,16.80
2018-11-20T20:14:36.861Z,16.70
2018-11-20T20:17:39.408Z,16.30
2018-11-20T20:20:42.838Z,16.30
2018-11-20T20:23:32.643Z,16.20
2018-11-20T20:26:32.095Z,16.30
2018-11-20T20:29:17.982Z,16.40
2018-11-20T20:32:17.601Z,16.70
2018-11-20T20:35:03.889Z,17.10
2018-11-20T20:37:50.086Z,17.20
2018-11-20T20:40:36.419Z,17.30
2018-11-20T20:43:25.753Z,17.50
2018-11-20T20:46:31.608Z,17.30
2018-11-20T20:49:37.771Z,17.10
2018-11-20T20:52:40.391Z,17.10
2018-11-20T20:55:43.149Z,17.00
2018-11-20T20:58:30.368Z,16.80
2018-11-20T21:01:26.995Z,16.80
2018-11-20T21:04:13.695Z,16.90
2018-11-20T21:06:59.625Z,16.90
2018-11-20T21:09:50.601Z,17.20
2018-11-20T21:12:44.229Z,17.10
2018-11-20T21:15:40.678Z,17.00
2018-11-20T21:18:43.291Z,17.00
2018-11-20T21:21:30.713Z,17.10
2018-11-20T21:24:24.338Z,17.20
2018-11-20T21:27:07.397Z,17.40
2018-11-20T21:29:53.607Z,17.50
2018-11-20T21:32:43.999Z,17.60
2018-11-20T21:35:17.798Z,17.70
2018-11-20T21:38:17.336Z,17.80
2018-11-20T21:41:04.745Z,17.90
2018-11-20T21:43:57.899Z,18.00
2018-11-20T21:46:43.786Z,18.00
2018-11-20T21:49:29.772Z,17.90
2018-11-20T21:52:23.192Z,17.90
2018-11-20T21:55:16.294Z,17.90
2018-11-20T21:58:22.152Z,17.80
2018-11-20T22:01:10.838Z,17.80
2018-11-20T22:03:56.999Z,17.60
2018-11-20T22:07:03.131Z,17.40
2018-11-20T22:09:48.673Z,17.40
2018-11-20T22:12:34.537Z,17.50
2018-11-20T22:15:28.196Z,17.40
2018-11-20T22:18:18.601Z,17.40
2018-11-20T22:21:07.673Z,17.50
2018-11-20T22:23:53.607Z,17.70
2018-11-20T22:26:59.511Z,17.60
2018-11-20T22:29:45.660Z,17.70
2018-11-20T22:32:37.273Z,17.70
2018-11-20T22:35:23.357Z,17.80
2018-11-20T22:38:05.757Z,17.60
2018-11-20T22:40:42.576Z,17.30
2018-11-20T22:43:42.048Z,17.30
2018-11-20T22:46:44.583Z,17.10
2018-11-20T22:49:38.357Z,17.00
2018-11-20T22:52:24.552Z,16.80
2018-11-20T22:55:03.787Z,16.80
2018-11-20T22:57:54.693Z,16.70
2018-11-20T23:00:31.258Z,16.70
2018-11-20T23:03:17.254Z,16.70
2018-11-20T23:06:12.388Z,16.70
2018-11-20T23:08:40.354Z,16.70
2018-11-20T23:11:08.404Z,16.50
2018-11-20T23:13:36.381Z,16.50
2018-11-20T23:16:04.700Z,16.40
2018-11-20T23:18:32.706Z,16.50
2018-11-20T23:21:00.638Z,16.50
2018-11-20T23:23:28.623Z,16.60
2018-11-20T23:25:56.527Z,16.60
2018-11-20T23:28:24.582Z,16.60
2018-11-20T23:30:52.467Z,16.40
2018-11-20T23:33:20.463Z,16.40
2018-11-20T23:35:48.559Z,16.30
2018-11-20T23:38:16.475Z,16.30
2018-11-20T23:40:44.360Z,16.40
2018-11-20T23:43:12.209Z,16.60
2018-11-20T23:45:40.054Z,16.60
2018-11-20T23:48:08.084Z,16.70
2018-11-20T23:50:36.193Z,16.70
2018-11-20T23:53:04.094Z,16.70
2018-11-20T23:55:32.145Z,16.60
2018-11-20T23:58:00.312Z,16.70
